Time,TemperatureF,DewpointF,PressureIn,WindDirection,WindDirectionDegrees,WindSpeedMPH,WindSpeedGustMPH,Humidity,HourlyPrecipIn,Conditions,Clouds,dailyrainin,SolarRadiationWatts/m^2,SoftwareType,DateUTC
2013-04-29 00:00:00,67.7,67.7,30.09,NNE,14,0.0,0.0,100,0.22,,,0.02,0,Wunderground v.1.15,2013-04-29 10:00:00,
2013-04-29 00:09:00,67.7,67.7,30.09,NNE,14,0.0,0.0,100,0.17,,,0.04,0,Wunderground v.1.15,2013-04-29 10:09:00,
2013-04-29 00:14:00,67.7,67.7,30.08,NNE,14,0.0,0.0,100,0.40,,,0.06,0,Wunderground v.1.15,2013-04-29 10:14:00,
2013-04-29 00:24:00,67.6,67.6,30.08,NNE,14,1.0,3.0,100,0.26,,,0.13,0,Wunderground v.1.15,2013-04-29 10:24:00,
2013-04-29 00:29:00,67.6,67.6,30.08,NNE,13,2.0,2.0,100,0.24,,,0.15,0,Wunderground v.1.15,2013-04-29 10:29:00,
2013-04-29 00:34:00,67.5,67.5,30.07,NNE,13,2.0,2.0,100,0.20,,,0.17,0,Wunderground v.1.15,2013-04-29 10:34:00,
2013-04-29 00:40:00,67.5,67.5,30.07,NNE,13,2.0,2.0,100,0.15,,,0.18,0,Wunderground v.1.15,2013-04-29 10:40:00,
2013-04-29 00:49:00,67.3,67.3,30.07,NNE,13,1.0,1.0,100,0.33,,,0.21,0,Wunderground v.1.15,2013-04-29 10:49:00,
2013-04-29 00:54:00,67.3,67.3,30.07,NNE,13,1.0,1.0,100,0.26,,,0.23,0,Wunderground v.1.15,2013-04-29 10:54:00,
2013-04-29 01:00:00,67.1,67.1,30.07,NNW,331,2.0,3.0,100,0.37,,,0.25,0,Wunderground v.1.15,2013-04-29 11:00:00,
2013-04-29 01:09:00,67.0,67.0,30.06,NNW,331,3.0,3.0,100,0.22,,,0.28,0,Wunderground v.1.15,2013-04-29 11:09:00,
2013-04-29 01:19:00,67.0,67.0,30.06,NNW,333,3.0,3.0,100,0.19,,,0.30,0,Wunderground v.1.15,2013-04-29 11:19:00,
2013-04-29 01:24:00,67.0,67.0,30.06,NNW,333,3.0,3.0,100,0.07,,,0.30,0,Wunderground v.1.15,2013-04-29 11:24:00,
2013-04-29 01:29:00,66.9,66.9,30.06,NNW,334,4.0,6.0,100,0.07,,,0.31,0,Wunderground v.1.15,2013-04-29 11:29:00,
2013-04-29 01:34:00,66.9,66.9,30.05,NNW,331,5.0,6.0,100,0.12,,,0.31,0,Wunderground v.1.15,2013-04-29 11:34:00,
2013-04-29 01:44:00,66.8,66.8,30.05,NNW,337,5.0,7.0,100,0.04,,,0.31,0,Wunderground v.1.15,2013-04-29 11:44:00,
2013-04-29 01:49:00,66.8,66.8,30.05,NNW,337,5.0,6.0,100,0.00,,,0.31,0,Wunderground v.1.15,2013-04-29 11:49:00,
2013-04-29 01:54:00,66.8,66.8,30.05,NNW,331,6.0,6.0,100,0.00,,,0.31,0,Wunderground v.1.15,2013-04-29 11:54:00,
2013-04-29 02:00:00,66.8,66.8,30.05,NNW,347,6.0,6.0,100,0.00,,,0.31,0,Wunderground v.1.15,2013-04-29 12:00:00,
2013-04-29 02:10:00,66.9,66.9,30.04,NNW,332,5.0,6.0,100,0.00,,,0.31,0,Wunderground v.1.15,2013-04-29 12:10:00,
2013-04-29 02:19:00,67.0,67.0,30.04,NNW,334,4.0,4.0,100,0.00,,,0.31,0,Wunderground v.1.15,2013-04-29 12:19:00,
2013-04-29 02:24:00,67.0,67.0,30.04,NNW,334,3.0,4.0,100,0.00,,,0.31,0,Wunderground v.1.15,2013-04-29 12:24:00,
2013-04-29 02:29:00,67.0,67.0,30.04,NNW,338,2.0,2.0,100,0.00,,,0.31,0,Wunderground v.1.15,2013-04-29 12:29:00,
2013-04-29 02:39:00,66.8,66.8,30.04,North,360,3.0,3.0,100,0.00,,,0.31,0,Wunderground v.1.15,2013-04-29 12:39:00,
2013-04-29 02:44:00,66.8,66.8,30.04,North,360,3.0,3.0,100,0.00,,,0.32,0,Wunderground v.1.15,2013-04-29 12:44:00,
2013-04-29 02:49:00,66.8,66.8,30.04,North,349,3.0,3.0,100,0.00,,,0.32,0,Wunderground v.1.15,2013-04-29 12:49:00,
2013-04-29 02:54:00,66.8,66.8,30.04,North,9,3.0,3.0,100,0.00,,,0.32,0,Wunderground v.1.15,2013-04-29 12:54:00,
2013-04-29 03:00:00,66.7,66.7,30.04,North,9,4.0,5.0,100,0.00,,,0.32,0,Wunderground v.1.15,2013-04-29 13:00:00,
2013-04-29 03:09:00,66.7,66.7,30.03,North,355,5.0,5.0,100,0.00,,,0.32,0,Wunderground v.1.15,2013-04-29 13:09:00,
2013-04-29 03:15:00,66.7,66.7,30.03,NNW,344,5.0,6.0,100,0.00,,,0.32,0,Wunderground v.1.15,2013-04-29 13:15:00,
2013-04-29 03:24:00,66.7,66.7,30.03,NNW,339,6.0,6.0,100,0.00,,,0.32,0,Wunderground v.1.15,2013-04-29 13:24:00,
2013-04-29 03:29:00,66.7,66.7,30.03,NNW,342,6.0,10.0,100,0.00,,,0.32,0,Wunderground v.1.15,2013-04-29 13:29:00,
2013-04-29 03:35:00,66.7,66.7,30.02,NNW,338,7.0,10.0,100,0.00,,,0.32,0,Wunderground v.1.15,2013-04-29 13:35:00,
2013-04-29 03:44:00,66.8,66.8,30.02,NNW,337,6.0,7.0,100,0.00,,,0.32,0,Wunderground v.1.15,2013-04-29 13:44:00,
2013-04-29 03:49:00,66.9,66.9,30.02,NNW,332,5.0,5.0,100,0.00,,,0.32,0,Wunderground v.1.15,2013-04-29 13:49:00,
2013-04-29 04:00:00,66.9,66.9,30.02,NNW,333,4.0,4.0,100,0.00,,,0.32,0,Wunderground v.1.15,2013-04-29 14:00:00,
2013-04-29 04:09:00,66.7,66.7,30.02,NNW,333,4.0,4.0,100,0.00,,,0.32,0,Wunderground v.1.15,2013-04-29 14:09:00,
2013-04-29 04:14:00,66.7,66.7,30.02,NNW,333,3.0,4.0,100,0.00,,,0.32,0,Wunderground v.1.15,2013-04-29 14:14:00,
2013-04-29 04:19:00,66.7,66.7,30.02,NNW,333,3.0,3.0,100,0.00,,,0.32,0,Wunderground v.1.15,2013-04-29 14:19:00,
2013-04-29 04:24:00,66.6,66.6,30.02,NNW,331,3.0,3.0,100,0.00,,,0.32,0,Wunderground v.1.15,2013-04-29 14:24:00,
2013-04-29 04:30:00,66.6,66.6,30.02,NNW,331,2.0,2.0,100,0.00,,,0.32,0,Wunderground v.1.15,2013-04-29 14:30:00,
2013-04-29 04:39:00,66.6,66.6,30.02,NNW,331,1.0,2.0,100,0.00,,,0.32,0,Wunderground v.1.15,2013-04-29 14:39:00,
2013-04-29 04:44:00,66.6,66.6,30.02,NNW,331,2.0,2.0,100,0.00,,,0.32,0,Wunderground v.1.15,2013-04-29 14:44:00,
2013-04-29 04:49:00,66.5,66.5,30.02,NNW,331,1.0,2.0,100,0.00,,,0.32,0,Wunderground v.1.15,2013-04-29 14:49:00,
2013-04-29 04:55:00,66.6,66.6,30.02,NNW,327,2.0,5.0,100,0.00,,,0.32,0,Wunderground v.1.15,2013-04-29 14:55:00,
2013-04-29 05:00:00,66.7,66.4,30.02,NNW,329,2.0,2.0,99,0.00,,,0.32,0,Wunderground v.1.15,2013-04-29 15:00:00,
2013-04-29 05:09:00,66.6,66.3,30.03,NNW,329,1.0,1.0,99,0.00,,,0.32,0,Wunderground v.1.15,2013-04-29 15:09:00,
2013-04-29 05:14:00,66.4,66.1,30.03,NNW,329,0.0,1.0,99,0.00,,,0.32,0,Wunderground v.1.15,2013-04-29 15:14:00,
2013-04-29 05:19:00,66.2,65.9,30.02,NNW,329,0.0,0.0,99,0.00,,,0.32,0,Wunderground v.1.15,2013-04-29 15:19:00,
2013-04-29 05:25:00,65.9,65.6,30.02,NNW,329,1.0,1.0,99,0.00,,,0.32,0,Wunderground v.1.15,2013-04-29 15:25:00,
2013-04-29 05:34:00,65.6,65.6,30.02,NNW,329,1.0,1.0,100,0.00,,,0.32,0,Wunderground v.1.15,2013-04-29 15:34:00,
2013-04-29 05:39:00,65.4,65.4,30.02,NNW,329,1.0,2.0,100,0.00,,,0.32,0,Wunderground v.1.15,2013-04-29 15:39:00,
2013-04-29 05:49:00,65.1,65.1,30.02,NNW,329,2.0,2.0,100,0.00,,,0.32,0,Wunderground v.1.15,2013-04-29 15:49:00,
2013-04-29 05:54:00,65.0,65.0,30.03,NNW,329,1.0,2.0,100,0.00,,,0.32,0,Wunderground v.1.15,2013-04-29 15:54:00,
2013-04-29 06:00:00,64.9,64.9,30.03,NNW,329,1.0,1.0,100,0.00,,,0.32,5,Wunderground v.1.15,2013-04-29 16:00:00,
2013-04-29 06:09:00,64.8,64.8,30.03,NNW,329,1.0,1.0,100,0.00,,,0.32,14,Wunderground v.1.15,2013-04-29 16:09:00,
2013-04-29 06:14:00,64.8,64.8,30.04,NNW,329,0.0,1.0,100,0.00,,,0.32,18,Wunderground v.1.15,2013-04-29 16:14:00,
2013-04-29 06:20:00,64.8,64.8,30.04,NNW,329,1.0,3.0,100,0.00,,,0.32,21,Wunderground v.1.15,2013-04-29 16:20:00,
2013-04-29 06:29:00,64.8,64.8,30.04,NNW,329,2.0,2.0,100,0.00,,,0.32,30,Wunderground v.1.15,2013-04-29 16:29:00,
2013-04-29 06:34:00,64.9,64.9,30.04,NNW,329,1.0,2.0,100,0.00,,,0.32,42,Wunderground v.1.15,2013-04-29 16:34:00,
2013-04-29 06:39:00,65.0,65.0,30.04,NNW,329,0.0,3.0,100,0.00,,,0.32,40,Wunderground v.1.15,2013-04-29 16:39:00,
2013-04-29 06:44:00,65.2,65.2,30.04,NNW,329,1.0,3.0,100,0.00,,,0.32,37,Wunderground v.1.15,2013-04-29 16:44:00,
2013-04-29 06:54:00,65.4,65.4,30.04,NNW,329,2.0,3.0,100,0.00,,,0.32,47,Wunderground v.1.15,2013-04-29 16:54:00,
2013-04-29 07:00:00,65.6,65.6,30.04,NNW,329,1.0,1.0,100,0.00,,,0.32,62,Wunderground v.1.15,2013-04-29 17:00:00,
2013-04-29 07:09:00,66.0,66.0,30.05,NNW,329,1.0,2.0,100,0.00,,,0.32,81,Wunderground v.1.15,2013-04-29 17:09:00,
2013-04-29 07:14:00,66.2,66.2,30.05,NNW,329,2.0,2.0,100,0.00,,,0.32,118,Wunderground v.1.15,2013-04-29 17:14:00,
2013-04-29 07:19:00,66.5,66.5,30.05,NNW,329,1.0,1.0,100,0.00,,,0.32,200,Wunderground v.1.15,2013-04-29 17:19:00,
2013-04-29 07:29:00,67.3,67.3,30.05,NNW,329,0.0,0.0,100,0.00,,,0.32,135,Wunderground v.1.15,2013-04-29 17:29:00,
2013-04-29 07:34:00,67.7,67.7,30.05,NNW,329,0.0,0.0,100,0.00,,,0.32,193,Wunderground v.1.15,2013-04-29 17:34:00,
2013-04-29 07:39:00,68.1,68.1,30.05,NNW,329,0.0,0.0,100,0.00,,,0.32,234,Wunderground v.1.15,2013-04-29 17:39:00,
2013-04-29 07:44:00,68.9,68.9,30.05,NNW,329,0.0,0.0,100,0.00,,,0.32,445,Wunderground v.1.15,2013-04-29 17:44:00,
2013-04-29 07:54:00,69.4,69.4,30.05,NNW,329,0.0,0.0,100,0.00,,,0.32,494,Wunderground v.1.15,2013-04-29 17:54:00,
2013-04-29 08:00:00,70.1,70.1,30.05,NNW,329,0.0,0.0,100,0.00,,,0.32,343,Wunderground v.1.15,2013-04-29 18:00:00,
2013-04-29 08:09:00,71.9,69.8,30.05,NNW,329,0.0,0.0,93,0.00,,,0.32,480,Wunderground v.1.15,2013-04-29 18:09:00,
2013-04-29 08:14:00,72.6,69.2,30.05,NNW,329,0.0,0.0,89,0.00,,,0.32,520,Wunderground v.1.15,2013-04-29 18:14:00,
2013-04-29 08:19:00,73.3,69.2,30.06,NNW,329,0.0,0.0,87,0.00,,,0.32,141,Wunderground v.1.15,2013-04-29 18:19:00,
2013-04-29 08:29:00,73.9,69.4,30.05,East,83,1.0,2.0,86,0.00,,,0.32,278,Wunderground v.1.15,2013-04-29 18:29:00,
2013-04-29 08:34:00,73.9,69.4,30.05,East,83,2.0,2.0,86,0.00,,,0.32,708,Wunderground v.1.15,2013-04-29 18:34:00,
2013-04-29 08:39:00,74.2,69.7,30.06,East,83,2.0,2.0,86,0.00,,,0.32,221,Wunderground v.1.15,2013-04-29 18:39:00,
2013-04-29 08:44:00,74.4,69.9,30.06,East,83,1.0,2.0,86,0.00,,,0.32,227,Wunderground v.1.15,2013-04-29 18:44:00,
2013-04-29 08:54:00,74.1,70.0,30.06,East,83,2.0,6.0,87,0.00,,,0.32,339,Wunderground v.1.15,2013-04-29 18:54:00,
2013-04-29 09:00:00,73.9,70.5,30.06,East,83,3.0,4.0,89,0.00,,,0.32,265,Wunderground v.1.15,2013-04-29 19:00:00,
2013-04-29 09:09:00,73.7,70.6,30.06,East,83,3.0,4.0,90,0.00,,,0.32,294,Wunderground v.1.15,2013-04-29 19:09:00,
2013-04-29 09:14:00,73.4,70.9,30.06,ESE,117,3.0,4.0,92,0.00,,,0.32,276,Wunderground v.1.15,2013-04-29 19:14:00,
2013-04-29 09:24:00,73.0,71.2,30.07,East,86,4.0,4.0,94,0.00,,,0.32,339,Wunderground v.1.15,2013-04-29 19:24:00,
2013-04-29 09:29:00,72.6,70.8,30.07,ESE,107,4.0,4.0,94,0.00,,,0.32,360,Wunderground v.1.15,2013-04-29 19:29:00,
2013-04-29 09:34:00,72.6,71.4,30.07,ESE,105,4.0,4.0,96,0.00,,,0.32,424,Wunderground v.1.15,2013-04-29 19:34:00,
2013-04-29 09:44:00,72.4,71.2,30.06,NE,49,3.0,4.0,96,0.00,,,0.32,394,Wunderground v.1.15,2013-04-29 19:44:00,
2013-04-29 09:49:00,72.3,70.8,30.06,NE,49,3.0,3.0,95,0.00,,,0.32,373,Wunderground v.1.15,2013-04-29 19:49:00,
2013-04-29 10:00:00,72.4,71.2,30.07,ESE,117,3.0,4.0,96,0.00,,,0.32,373,Wunderground v.1.15,2013-04-29 20:00:00,
2013-04-29 10:09:00,71.9,70.7,30.07,ENE,67,4.0,4.0,96,0.00,,,0.32,501,Wunderground v.1.15,2013-04-29 20:09:00,
2013-04-29 10:19:00,72.0,70.8,30.07,SE,126,4.0,4.0,96,0.00,,,0.32,483,Wunderground v.1.15,2013-04-29 20:19:00,
2013-04-29 10:24:00,71.6,70.1,30.07,ENE,78,4.0,4.0,95,0.00,,,0.32,520,Wunderground v.1.15,2013-04-29 20:24:00,
2013-04-29 10:29:00,71.9,70.7,30.07,ENE,78,3.0,3.0,96,0.00,,,0.32,589,Wunderground v.1.15,2013-04-29 20:29:00,
2013-04-29 10:34:00,72.1,70.6,30.06,East,82,2.0,3.0,95,0.00,,,0.32,513,Wunderground v.1.15,2013-04-29 20:34:00,
2013-04-29 10:40:00,72.3,70.5,30.06,East,86,4.0,4.0,94,0.00,,,0.32,422,Wunderground v.1.15,2013-04-29 20:40:00,
2013-04-29 10:49:00,72.5,70.7,30.06,East,84,3.0,3.0,94,0.00,,,0.32,487,Wunderground v.1.15,2013-04-29 20:49:00,
2013-04-29 10:54:00,72.6,70.5,30.06,East,84,2.0,3.0,93,0.00,,,0.32,471,Wunderground v.1.15,2013-04-29 20:54:00,
2013-04-29 11:00:00,73.0,70.9,30.06,East,89,2.0,3.0,93,0.00,,,0.32,446,Wunderground v.1.15,2013-04-29 21:00:00,
2013-04-29 11:09:00,73.7,71.5,30.05,ESE,119,2.0,4.0,93,0.00,,,0.32,526,Wunderground v.1.15,2013-04-29 21:09:00,
2013-04-29 11:19:00,73.5,71.0,30.06,ENE,71,4.0,6.0,92,0.00,,,0.32,540,Wunderground v.1.15,2013-04-29 21:19:00,
2013-04-29 11:24:00,73.5,71.0,30.05,East,88,4.0,6.0,92,0.00,,,0.32,473,Wunderground v.1.15,2013-04-29 21:24:00,
2013-04-29 11:29:00,73.5,71.0,30.05,East,80,4.0,4.0,92,0.00,,,0.32,420,Wunderground v.1.15,2013-04-29 21:29:00,
2013-04-29 11:39:00,73.5,71.0,30.05,ESE,115,3.0,3.0,92,0.00,,,0.32,529,Wunderground v.1.15,2013-04-29 21:39:00,
2013-04-29 11:44:00,73.5,71.0,30.05,ENE,76,3.0,4.0,92,0.00,,,0.32,552,Wunderground v.1.15,2013-04-29 21:44:00,
2013-04-29 11:49:00,73.6,70.8,30.05,ENE,76,3.0,3.0,91,0.00,,,0.32,628,Wunderground v.1.15,2013-04-29 21:49:00,
2013-04-29 11:54:00,74.1,71.0,30.05,ENE,73,2.0,3.0,90,0.00,,,0.32,724,Wunderground v.1.15,2013-04-29 21:54:00,
2013-04-29 12:00:00,74.5,71.0,30.04,ENE,71,1.0,4.0,89,0.00,,,0.32,606,Wunderground v.1.15,2013-04-29 22:00:00,
2013-04-29 12:09:00,74.8,71.3,30.04,SE,132,3.0,4.0,89,0.00,,,0.32,318,Wunderground v.1.15,2013-04-29 22:09:00,
2013-04-29 12:14:00,74.5,71.0,30.03,ENE,57,3.0,4.0,89,0.00,,,0.32,262,Wunderground v.1.15,2013-04-29 22:14:00,
2013-04-29 12:24:00,74.4,71.3,30.03,SE,133,3.0,7.0,90,0.00,,,0.32,290,Wunderground v.1.15,2013-04-29 22:24:00,
2013-04-29 12:29:00,74.3,71.5,30.03,East,97,4.0,6.0,91,0.00,,,0.32,155,Wunderground v.1.15,2013-04-29 22:29:00,
2013-04-29 12:34:00,73.8,71.0,30.03,SSE,148,6.0,9.0,91,0.00,,,0.32,160,Wunderground v.1.15,2013-04-29 22:34:00,
2013-04-29 12:39:00,73.4,70.9,30.03,SE,134,5.0,5.0,92,0.00,,,0.32,218,Wunderground v.1.15,2013-04-29 22:39:00,
2013-04-29 12:49:00,73.2,70.7,30.02,East,84,5.0,5.0,92,0.00,,,0.32,353,Wunderground v.1.15,2013-04-29 22:49:00,
2013-04-29 12:54:00,73.2,70.7,30.02,SE,142,4.0,5.0,92,0.00,,,0.32,357,Wunderground v.1.15,2013-04-29 22:54:00,
2013-04-29 13:00:00,73.4,70.9,30.02,ESE,117,4.0,4.0,92,0.00,,,0.32,359,Wunderground v.1.15,2013-04-29 23:00:00,
2013-04-29 13:09:00,73.6,70.8,30.02,SE,130,5.0,9.0,91,0.00,,,0.32,301,Wunderground v.1.15,2013-04-29 23:09:00,
2013-04-29 13:14:00,73.5,70.7,30.02,ESE,123,5.0,9.0,91,0.00,,,0.32,306,Wunderground v.1.15,2013-04-29 23:14:00,
2013-04-29 13:19:00,73.5,70.7,30.01,SE,134,4.0,5.0,91,0.00,,,0.32,411,Wunderground v.1.15,2013-04-29 23:19:00,
2013-04-29 13:29:00,74.0,71.2,30.01,SE,134,3.0,3.0,91,0.00,,,0.32,404,Wunderground v.1.15,2013-04-29 23:29:00,
2013-04-29 13:34:00,74.2,70.7,30.01,SE,134,3.0,3.0,89,0.00,,,0.32,475,Wunderground v.1.15,2013-04-29 23:34:00,
2013-04-29 13:39:00,74.3,71.2,30.01,ESE,115,4.0,4.0,90,0.00,,,0.32,420,Wunderground v.1.15,2013-04-29 23:39:00,
2013-04-29 13:44:00,74.4,71.3,30.01,ESE,108,4.0,5.0,90,0.00,,,0.32,285,Wunderground v.1.15,2013-04-29 23:44:00,
2013-04-29 13:54:00,73.7,70.9,30.01,SE,137,4.0,6.0,91,0.00,,,0.32,213,Wunderground v.1.15,2013-04-29 23:54:00,
2013-04-29 14:00:00,73.3,70.5,30.00,SSE,152,4.0,4.0,91,0.00,,,0.32,213,Wunderground v.1.15,2013-04-30 00:00:00,
2013-04-29 14:09:00,73.2,70.4,30.00,SE,136,2.0,4.0,91,0.00,,,0.32,318,Wunderground v.1.15,2013-04-30 00:09:00,
2013-04-29 14:14:00,73.5,70.7,30.00,SE,128,3.0,6.0,91,0.00,,,0.32,311,Wunderground v.1.15,2013-04-30 00:14:00,
2013-04-29 14:19:00,73.5,70.7,29.99,East,101,4.0,4.0,91,0.00,,,0.32,295,Wunderground v.1.15,2013-04-30 00:19:00,
2013-04-29 14:29:00,73.8,70.7,29.99,SE,136,3.0,4.0,90,0.00,,,0.32,304,Wunderground v.1.15,2013-04-30 00:29:00,
2013-04-29 14:34:00,73.8,70.7,29.99,SE,135,4.0,4.0,90,0.00,,,0.32,281,Wunderground v.1.15,2013-04-30 00:34:00,
2013-04-29 14:39:00,73.7,70.9,29.99,SE,146,5.0,5.0,91,0.00,,,0.32,334,Wunderground v.1.15,2013-04-30 00:39:00,
2013-04-29 14:44:00,73.7,70.9,29.99,SE,124,5.0,6.0,91,0.00,,,0.32,322,Wunderground v.1.15,2013-04-30 00:44:00,
2013-04-29 14:54:00,73.6,70.5,29.99,SE,140,6.0,6.0,90,0.00,,,0.32,304,Wunderground v.1.15,2013-04-30 00:54:00,
2013-04-29 15:00:00,73.6,70.5,29.98,ESE,122,5.0,8.0,90,0.00,,,0.32,313,Wunderground v.1.15,2013-04-30 01:00:00,
2013-04-29 15:09:00,73.6,70.5,29.98,SE,130,5.0,7.0,90,0.00,,,0.32,272,Wunderground v.1.15,2013-04-30 01:09:00,
2013-04-29 15:14:00,73.7,70.3,29.98,East,94,5.0,7.0,89,0.00,,,0.32,302,Wunderground v.1.15,2013-04-30 01:14:00,
2013-04-29 15:19:00,74.0,70.6,29.98,East,88,4.0,4.0,89,0.00,,,0.32,232,Wunderground v.1.15,2013-04-30 01:19:00,
2013-04-29 15:25:00,73.9,70.5,29.98,ESE,113,3.0,4.0,89,0.00,,,0.32,234,Wunderground v.1.15,2013-04-30 01:25:00,
2013-04-29 15:34:00,73.8,70.7,29.98,ESE,118,4.0,4.0,90,0.00,,,0.32,156,Wunderground v.1.15,2013-04-30 01:34:00,
2013-04-29 15:39:00,73.7,70.9,29.98,SSE,152,4.0,5.0,91,0.00,,,0.32,135,Wunderground v.1.15,2013-04-30 01:39:00,
2013-04-29 15:49:00,73.5,71.0,29.98,SE,143,4.0,4.0,92,0.00,,,0.32,151,Wunderground v.1.15,2013-04-30 01:49:00,
2013-04-29 15:54:00,73.3,70.5,29.98,SE,133,4.0,4.0,91,0.00,,,0.32,174,Wunderground v.1.15,2013-04-30 01:54:00,
2013-04-29 16:00:00,73.2,70.4,29.98,SE,132,4.0,4.0,91,0.00,,,0.32,218,Wunderground v.1.15,2013-04-30 02:00:00,
2013-04-29 16:09:00,73.3,70.5,29.98,ESE,123,3.0,5.0,91,0.00,,,0.32,144,Wunderground v.1.15,2013-04-30 02:09:00,
2013-04-29 16:14:00,73.3,70.5,29.98,SE,133,5.0,5.0,91,0.00,,,0.32,107,Wunderground v.1.15,2013-04-30 02:14:00,
2013-04-29 16:19:00,73.2,70.7,29.98,SE,128,4.0,6.0,92,0.00,,,0.32,88,Wunderground v.1.15,2013-04-30 02:19:00,
2013-04-29 16:30:00,72.9,70.4,29.98,SE,132,4.0,4.0,92,0.00,,,0.32,76,Wunderground v.1.15,2013-04-30 02:30:00,
2013-04-29 16:39:00,72.8,70.3,29.98,ESE,115,2.0,2.0,92,0.00,,,0.32,65,Wunderground v.1.15,2013-04-30 02:39:00,
2013-04-29 16:44:00,72.8,70.3,29.98,ESE,121,3.0,4.0,92,0.00,,,0.32,65,Wunderground v.1.15,2013-04-30 02:44:00,
2013-04-29 16:49:00,72.7,70.2,29.98,ENE,78,3.0,3.0,92,0.00,,,0.32,62,Wunderground v.1.15,2013-04-30 02:49:00,
2013-04-29 17:00:00,72.3,70.2,29.98,North,360,2.0,2.0,93,0.00,,,0.32,54,Wunderground v.1.15,2013-04-30 03:00:00,
2013-04-29 17:09:00,71.4,69.9,29.98,North,360,1.0,1.0,95,0.00,,,0.32,44,Wunderground v.1.15,2013-04-30 03:09:00,
2013-04-29 17:14:00,71.1,69.9,29.98,North,360,0.0,1.0,96,0.00,,,0.32,40,Wunderground v.1.15,2013-04-30 03:14:00,
2013-04-29 17:19:00,70.8,69.6,29.98,North,360,1.0,3.0,96,0.00,,,0.32,28,Wunderground v.1.15,2013-04-30 03:19:00,
2013-04-29 17:24:00,70.5,69.6,29.99,North,360,3.0,3.0,97,0.00,,,0.32,21,Wunderground v.1.15,2013-04-30 03:24:00,
2013-04-29 17:29:00,70.4,69.5,29.98,North,360,3.0,3.0,97,0.00,,,0.32,25,Wunderground v.1.15,2013-04-30 03:29:00,
2013-04-29 17:39:00,70.0,69.4,29.99,NW,322,3.0,6.0,98,0.00,,,0.32,19,Wunderground v.1.15,2013-04-30 03:39:00,
2013-04-29 17:44:00,69.8,69.2,29.99,NW,317,5.0,6.0,98,0.00,,,0.32,12,Wunderground v.1.15,2013-04-30 03:44:00,
2013-04-29 17:49:00,69.7,69.4,29.99,NW,309,4.0,4.0,99,0.00,,,0.33,11,Wunderground v.1.15,2013-04-30 03:49:00,
2013-04-29 17:54:00,69.5,69.2,29.99,NNW,330,4.0,4.0,99,0.00,,,0.33,7,Wunderground v.1.15,2013-04-30 03:54:00,
2013-04-29 18:00:00,69.5,69.2,30.00,NNW,330,3.0,3.0,99,0.04,,,0.34,9,Wunderground v.1.15,2013-04-30 04:00:00,
2013-04-29 18:04:00,69.4,69.4,30.00,NW,325,2.0,3.0,100,0.04,,,0.34,7,Wunderground v.1.15,2013-04-30 04:04:00,
2013-04-29 18:10:00,69.3,69.3,30.00,NW,323,3.0,3.0,100,0.17,,,0.35,9,Wunderground v.1.15,2013-04-30 04:10:00,
2013-04-29 18:14:00,69.1,69.1,30.00,NW,323,3.0,3.0,100,0.11,,,0.35,5,Wunderground v.1.15,2013-04-30 04:14:00,
2013-04-29 18:19:00,68.9,68.9,30.00,NW,322,3.0,3.0,100,0.06,,,0.35,5,Wunderground v.1.15,2013-04-30 04:19:00,
2013-04-29 18:24:00,69.0,69.0,30.00,NW,322,1.0,3.0,100,0.04,,,0.35,0,Wunderground v.1.15,2013-04-30 04:24:00,
2013-04-29 18:29:00,68.9,68.9,30.00,NW,322,1.0,1.0,100,0.00,,,0.35,0,Wunderground v.1.15,2013-04-30 04:29:00,
2013-04-29 18:35:00,69.0,69.0,30.01,NW,323,0.0,2.0,100,0.00,,,0.36,0,Wunderground v.1.15,2013-04-30 04:35:00,
2013-04-29 18:44:00,69.0,69.0,30.01,NW,323,0.0,3.0,100,0.82,,,0.41,0,Wunderground v.1.15,2013-04-30 04:44:00,
2013-04-29 18:49:00,69.0,69.0,30.01,NW,323,1.0,1.0,100,0.20,,,0.43,0,Wunderground v.1.15,2013-04-30 04:49:00,
2013-04-29 18:54:00,68.9,68.9,30.01,NW,323,2.0,2.0,100,0.08,,,0.43,0,Wunderground v.1.15,2013-04-30 04:54:00,
2013-04-29 19:00:00,69.0,69.0,30.02,NW,323,0.0,0.0,100,0.41,,,0.46,0,Wunderground v.1.15,2013-04-30 05:00:00,
2013-04-29 19:09:00,68.7,68.7,30.01,NNW,333,4.0,6.0,100,0.15,,,0.48,0,Wunderground v.1.15,2013-04-30 05:09:00,
2013-04-29 19:14:00,68.6,68.6,30.02,NNW,333,5.0,6.0,100,0.07,,,0.48,0,Wunderground v.1.15,2013-04-30 05:14:00,
2013-04-29 19:19:00,68.5,68.5,30.01,NNW,333,3.0,3.0,100,0.04,,,0.48,0,Wunderground v.1.15,2013-04-30 05:19:00,
2013-04-29 19:29:00,68.5,68.5,30.02,NNW,344,2.0,2.0,100,0.00,,,0.48,0,Wunderground v.1.15,2013-04-30 05:29:00,
2013-04-29 19:34:00,68.4,68.4,30.02,NNW,342,3.0,5.0,100,0.00,,,0.49,0,Wunderground v.1.15,2013-04-30 05:34:00,
2013-04-29 19:39:00,68.3,68.3,30.02,NNW,342,3.0,3.0,100,0.00,,,0.49,0,Wunderground v.1.15,2013-04-30 05:39:00,
2013-04-29 19:44:00,68.3,68.3,30.02,NNW,342,4.0,4.0,100,0.00,,,0.49,0,Wunderground v.1.15,2013-04-30 05:44:00,
2013-04-29 19:54:00,68.2,68.2,30.03,NNW,342,2.0,3.0,100,0.00,,,0.49,0,Wunderground v.1.15,2013-04-30 05:54:00,
2013-04-29 20:00:00,68.2,68.2,30.03,NNW,342,2.0,3.0,100,0.00,,,0.49,0,Wunderground v.1.15,2013-04-30 06:00:00,
2013-04-29 20:09:00,68.2,68.2,30.03,NNW,342,1.0,5.0,100,0.00,,,0.49,0,Wunderground v.1.15,2013-04-30 06:09:00,
2013-04-29 20:14:00,68.1,68.1,30.03,NNW,341,2.0,5.0,100,0.00,,,0.49,0,Wunderground v.1.15,2013-04-30 06:14:00,
2013-04-29 20:19:00,68.2,68.2,30.03,NNW,341,2.0,2.0,100,0.00,,,0.49,0,Wunderground v.1.15,2013-04-30 06:19:00,
2013-04-29 20:24:00,68.1,68.1,30.03,NNW,341,1.0,2.0,100,0.00,,,0.49,0,Wunderground v.1.15,2013-04-30 06:24:00,
2013-04-29 20:34:00,68.1,68.1,30.03,NNW,341,0.0,1.0,100,0.00,,,0.49,0,Wunderground v.1.15,2013-04-30 06:34:00,
2013-04-29 20:39:00,68.0,68.0,30.03,NNW,341,0.0,0.0,100,0.00,,,0.49,0,Wunderground v.1.15,2013-04-30 06:39:00,
2013-04-29 20:44:00,68.0,68.0,30.03,NNW,341,0.0,0.0,100,0.00,,,0.49,0,Wunderground v.1.15,2013-04-30 06:44:00,
2013-04-29 20:49:00,67.9,67.9,30.03,NNW,341,1.0,2.0,100,0.00,,,0.49,0,Wunderground v.1.15,2013-04-30 06:49:00,
2013-04-29 21:00:00,67.8,67.8,30.04,NNW,341,0.0,0.0,100,0.00,,,0.49,0,Wunderground v.1.15,2013-04-30 07:00:00,
2013-04-29 21:09:00,67.8,67.8,30.05,NNW,341,0.0,0.0,100,0.00,,,0.49,0,Wunderground v.1.15,2013-04-30 07:09:00,
2013-04-29 21:14:00,67.8,67.8,30.05,NNW,341,0.0,0.0,100,0.00,,,0.49,0,Wunderground v.1.15,2013-04-30 07:14:00,
2013-04-29 21:19:00,67.8,67.8,30.05,NNW,341,0.0,0.0,100,0.00,,,0.49,0,Wunderground v.1.15,2013-04-30 07:19:00,
2013-04-29 21:29:00,67.8,67.8,30.05,NNW,341,0.0,2.0,100,0.00,,,0.49,0,Wunderground v.1.15,2013-04-30 07:29:00,
2013-04-29 21:34:00,67.7,67.7,30.05,NNW,341,2.0,2.0,100,0.00,,,0.49,0,Wunderground v.1.15,2013-04-30 07:34:00,
2013-04-29 21:39:00,67.7,67.7,30.05,NNW,341,1.0,1.0,100,0.00,,,0.49,0,Wunderground v.1.15,2013-04-30 07:39:00,
2013-04-29 21:44:00,67.6,67.6,30.05,NNW,341,0.0,1.0,100,0.00,,,0.49,0,Wunderground v.1.15,2013-04-30 07:44:00,
2013-04-29 21:49:00,67.7,67.7,30.05,NNW,341,0.0,0.0,100,0.00,,,0.49,0,Wunderground v.1.15,2013-04-30 07:49:00,
2013-04-29 21:54:00,67.8,67.8,30.05,NNW,341,0.0,0.0,100,0.00,,,0.49,0,Wunderground v.1.15,2013-04-30 07:54:00,
2013-04-29 22:00:00,67.8,67.8,30.05,NNW,341,0.0,0.0,100,0.00,,,0.49,0,Wunderground v.1.15,2013-04-30 08:00:00,
2013-04-29 22:09:00,67.8,67.8,30.05,NNW,341,0.0,0.0,100,0.00,,,0.49,0,Wunderground v.1.15,2013-04-30 08:09:00,
2013-04-29 22:14:00,67.9,67.9,30.05,NNW,341,0.0,0.0,100,0.00,,,0.49,0,Wunderground v.1.15,2013-04-30 08:14:00,
2013-04-29 22:24:00,67.9,67.9,30.05,NNW,341,0.0,0.0,100,0.00,,,0.49,0,Wunderground v.1.15,2013-04-30 08:24:00,
2013-04-29 22:29:00,67.9,67.9,30.05,NNW,341,0.0,0.0,100,0.00,,,0.49,0,Wunderground v.1.15,2013-04-30 08:29:00,
2013-04-29 22:34:00,67.9,67.9,30.05,NNW,341,1.0,1.0,100,0.00,,,0.49,0,Wunderground v.1.15,2013-04-30 08:34:00,
2013-04-29 22:44:00,67.9,67.9,30.05,NNW,341,1.0,1.0,100,0.00,,,0.49,0,Wunderground v.1.15,2013-04-30 08:44:00,
2013-04-29 22:49:00,67.8,67.8,30.05,NNW,341,1.0,1.0,100,0.00,,,0.49,0,Wunderground v.1.15,2013-04-30 08:49:00,
2013-04-29 22:54:00,67.8,67.8,30.05,NNW,341,0.0,1.0,100,0.00,,,0.49,0,Wunderground v.1.15,2013-04-30 08:54:00,
2013-04-29 23:00:00,67.8,67.8,30.05,NNW,341,0.0,0.0,100,0.00,,,0.49,0,Wunderground v.1.15,2013-04-30 09:00:00,
2013-04-29 23:09:00,67.9,67.9,30.05,NNW,341,0.0,0.0,100,0.00,,,0.50,0,Wunderground v.1.15,2013-04-30 09:09:00,
2013-04-29 23:14:00,68.0,68.0,30.06,NNW,341,0.0,2.0,100,0.24,,,0.51,0,Wunderground v.1.15,2013-04-30 09:14:00,
2013-04-29 23:24:00,68.0,68.0,30.06,NNW,341,0.0,1.0,100,0.27,,,0.55,0,Wunderground v.1.15,2013-04-30 09:24:00,
2013-04-29 23:29:00,68.0,68.0,30.06,NNW,341,1.0,1.0,100,0.34,,,0.57,0,Wunderground v.1.15,2013-04-30 09:29:00,
2013-04-29 23:34:00,67.9,67.9,30.06,NNW,341,1.0,1.0,100,0.32,,,0.60,0,Wunderground v.1.15,2013-04-30 09:34:00,
2013-04-29 23:39:00,67.8,67.8,30.05,NNW,341,1.0,1.0,100,0.21,,,0.61,0,Wunderground v.1.15,2013-04-30 09:39:00,
2013-04-29 23:49:00,67.7,67.7,30.05,NNW,341,1.0,1.0,100,0.20,,,0.63,0,Wunderground v.1.15,2013-04-30 09:49:00,
2013-04-29 23:54:00,67.7,67.7,30.05,NNW,341,1.0,1.0,100,0.23,,,0.00,0,Wunderground v.1.15,2013-04-30 09:54:00,